createdAt,value
2022-10-08T00:00:15.154Z,94960.50
2022-10-08T00:02:41.791Z,94962.47
2022-10-08T00:05:08.841Z,94948.44
2022-10-08T00:07:35.620Z,94964.09
2022-10-08T00:10:02.602Z,94956.88
2022-10-08T00:12:29.220Z,94956.88
2022-10-08T00:14:56.005Z,94950.78
2022-10-08T00:17:22.677Z,94947.00
2022-10-08T00:19:49.307Z,94956.88
2022-10-08T00:22:15.946Z,94954.91
2022-10-08T00:24:42.579Z,94946.19
2022-10-08T00:27:09.226Z,94948.66
2022-10-08T00:29:35.881Z,94950.63
2022-10-08T00:32:02.559Z,94937.47
2022-10-08T00:34:29.933Z,94936.16
2022-10-08T00:36:56.621Z,94942.38
2022-10-08T00:39:24.653Z,94948.00
2022-10-08T00:41:53.784Z,94887.91
2022-10-08T00:44:54.916Z,94945.34
2022-10-08T00:47:35.291Z,94935.50
2022-10-08T00:50:12.881Z,94938.94
2022-10-08T00:52:52.848Z,94936.13
2022-10-08T00:55:21.436Z,94937.13
2022-10-08T00:57:48.252Z,94925.63
2022-10-08T01:00:20.136Z,94929.06
2022-10-08T01:02:47.128Z,94931.84
2022-10-08T01:05:17.230Z,94903.38
2022-10-08T01:07:52.181Z,94921.66
2022-10-08T01:10:32.179Z,94904.84
2022-10-08T01:13:37.865Z,94926.22
2022-10-08T01:16:07.565Z,94927.41
2022-10-08T01:18:43.602Z,94926.94
2022-10-08T01:21:21.905Z,94912.78
2022-10-08T01:24:00.540Z,94921.97
2022-10-08T01:26:42.771Z,94921.47
2022-10-08T01:29:16.588Z,94918.03
2022-10-08T01:32:01.822Z,94906.50
2022-10-08T01:34:37.195Z,94915.22
2022-10-08T01:37:04.973Z,94905.25
2022-10-08T01:39:33.558Z,94910.41
2022-10-08T01:42:03.094Z,94913.25
2022-10-08T01:44:36.862Z,94912.09
2022-10-08T01:47:07.066Z,94897.72
2022-10-08T01:49:42.022Z,94916.13
2022-10-08T01:52:13.030Z,94889.59
2022-10-08T01:54:41.285Z,94910.72
2022-10-08T01:57:10.409Z,94854.56
2022-10-08T01:59:44.124Z,94903.81
2022-10-08T02:02:17.067Z,94911.69
2022-10-08T02:04:43.811Z,94905.63
2022-10-08T02:07:11.273Z,94906.41
2022-10-08T02:09:41.543Z,94899.50
2022-10-08T02:12:09.269Z,94892.75
2022-10-08T02:14:38.665Z,94887.66
2022-10-08T02:17:15.125Z,94899.84
2022-10-08T02:19:56.009Z,94899.84
2022-10-08T02:22:25.866Z,94899.34
2022-10-08T02:24:56.293Z,94907.06
2022-10-08T02:27:29.905Z,94894.94
2022-10-08T02:30:10.286Z,94895.91
2022-10-08T02:33:01.437Z,94894.56
2022-10-08T02:35:33.407Z,94894.19
2022-10-08T02:38:02.852Z,94893.88
2022-10-08T02:40:30.593Z,94889.63
2022-10-08T02:43:01.691Z,94898.53
2022-10-08T02:45:31.348Z,94898.53
2022-10-08T02:48:04.610Z,94889.38
2022-10-08T02:50:32.406Z,94897.63
2022-10-08T02:52:59.779Z,94900.91
2022-10-08T02:55:47.199Z,94907.16
2022-10-08T02:58:13.974Z,94899.75
2022-10-08T03:00:51.647Z,94891.03
2022-10-08T03:03:25.846Z,94909.25
2022-10-08T03:05:52.898Z,94904.81
2022-10-08T03:08:20.554Z,94913.03
2022-10-08T03:10:47.539Z,94896.56
2022-10-08T03:13:14.488Z,94918.81
2022-10-08T03:15:41.553Z,94916.69
2022-10-08T03:18:10.557Z,94911.94
2022-10-08T03:20:45.778Z,94909.78
2022-10-08T03:23:16.035Z,94903.84
2022-10-08T03:25:42.691Z,94909.47
2022-10-08T03:28:09.609Z,94919.34
2022-10-08T03:30:36.317Z,94906.47
2022-10-08T03:33:03.021Z,94907.81
2022-10-08T03:35:29.747Z,94917.53
2022-10-08T03:37:56.406Z,94917.53
2022-10-08T03:40:23.053Z,94926.09
2022-10-08T03:42:51.236Z,94914.75
2022-10-08T03:45:17.878Z,94915.09
2022-10-08T03:47:44.489Z,94905.53
2022-10-08T03:50:11.219Z,94915.09
2022-10-08T03:52:37.936Z,94922.00
2022-10-08T03:55:04.987Z,94923.00
2022-10-08T03:57:31.624Z,94913.13
2022-10-08T03:59:58.266Z,94906.06
2022-10-08T04:02:24.990Z,94913.78
2022-10-08T04:04:51.765Z,94914.47
2022-10-08T04:07:18.421Z,94902.94
2022-10-08T04:09:45.093Z,94912.78
2022-10-08T04:12:11.742Z,94908.19
2022-10-08T04:14:38.353Z,94914.09
2022-10-08T04:17:05.048Z,94916.44
2022-10-08T04:19:31.691Z,94899.81
2022-10-08T04:21:58.315Z,94903.94
2022-10-08T04:24:24.962Z,94908.69
2022-10-08T04:26:51.634Z,94907.88
2022-10-08T04:29:18.302Z,94906.56
2022-10-08T04:31:44.987Z,94909.34
2022-10-08T04:34:11.842Z,94911.16
2022-10-08T04:36:39.061Z,94910.50
2022-10-08T04:39:05.676Z,94894.53
2022-10-08T04:41:32.322Z,94898.66
2022-10-08T04:44:01.233Z,94916.06
2022-10-08T04:46:28.543Z,94904.88
2022-10-08T04:48:56.461Z,94911.47
2022-10-08T04:51:25.207Z,94920.84
2022-10-08T04:53:52.762Z,94920.38
2022-10-08T04:56:22.258Z,94907.38
2022-10-08T04:58:49.270Z,94918.41
2022-10-08T05:01:18.071Z,94920.22
2022-10-08T05:03:53.202Z,94924.97
2022-10-08T05:06:22.301Z,94919.50
2022-10-08T05:08:49.289Z,94917.38
2022-10-08T05:11:16.727Z,94912.75
2022-10-08T05:13:43.450Z,94899.44
2022-10-08T05:16:13.508Z,94921.00
2022-10-08T05:18:41.730Z,94920.53
2022-10-08T05:21:10.894Z,94927.59
2022-10-08T05:23:38.708Z,94927.59
2022-10-08T05:26:19.764Z,94932.88
2022-10-08T05:28:48.186Z,94933.19
2022-10-08T05:31:16.133Z,94934.69
2022-10-08T05:33:43.150Z,94935.81
2022-10-08T05:36:16.153Z,94934.47
2022-10-08T05:38:43.846Z,94946.97
2022-10-08T05:41:38.170Z,94942.53
2022-10-08T05:44:05.655Z,94939.44
2022-10-08T05:46:34.700Z,94936.78
2022-10-08T05:49:02.492Z,94941.69
2022-10-08T05:51:29.519Z,94946.59
2022-10-08T05:53:59.605Z,94943.38
2022-10-08T05:56:27.732Z,94945.81
2022-10-08T05:58:54.623Z,94942.38
2022-10-08T06:01:26.640Z,94950.94
2022-10-08T06:03:58.785Z,94959.19
2022-10-08T06:06:25.765Z,94944.03
2022-10-08T06:09:00.869Z,94960.97
2022-10-08T06:11:31.898Z,94963.94
2022-10-08T06:13:59.910Z,94972.84
2022-10-08T06:16:27.159Z,94972.66
2022-10-08T06:18:53.887Z,94951.94
2022-10-08T06:21:23.171Z,94929.56
2022-10-08T06:23:51.945Z,94972.03
2022-10-08T06:26:19.370Z,94979.28
2022-10-08T06:28:46.309Z,94978.28
2022-10-08T06:31:13.070Z,94967.75
2022-10-08T06:33:40.262Z,94972.06
2022-10-08T06:36:13.426Z,94958.38
2022-10-08T06:38:40.331Z,94975.00
2022-10-08T06:41:06.998Z,94967.75
2022-10-08T06:43:33.869Z,94984.06
2022-10-08T06:46:04.759Z,94987.03
2022-10-08T06:48:31.994Z,94984.25
2022-10-08T06:51:07.377Z,94986.22
2022-10-08T06:53:34.758Z,94970.75
2022-10-08T06:56:07.153Z,94979.78
2022-10-08T06:58:37.763Z,94978.78
2022-10-08T07:01:06.113Z,94996.75
2022-10-08T07:03:33.190Z,94984.91
2022-10-08T07:06:01.479Z,94986.88
2022-10-08T07:08:29.100Z,94992.78
2022-10-08T07:10:55.899Z,94998.06
2022-10-08T07:13:22.583Z,95014.19
2022-10-08T07:15:49.379Z,94985.69
2022-10-08T07:18:16.304Z,95003.97
2022-10-08T07:20:43.337Z,95011.03
2022-10-08T07:23:11.215Z,95003.28
2022-10-08T07:25:37.833Z,95002.63
2022-10-08T07:28:04.540Z,95000.00
2022-10-08T07:30:33.071Z,94994.41
2022-10-08T07:33:00.397Z,95015.47
2022-10-08T07:35:29.226Z,94989.09
2022-10-08T07:37:56.462Z,95016.41
2022-10-08T07:40:23.126Z,95004.88
2022-10-08T07:42:50.157Z,95006.47
2022-10-08T07:45:17.942Z,95019.19
2022-10-08T07:47:44.688Z,94996.91
2022-10-08T07:50:11.355Z,95001.81
2022-10-08T07:52:38.017Z,95017.91
2022-10-08T07:55:05.173Z,95021.50
2022-10-08T07:57:31.813Z,95005.94
2022-10-08T07:59:58.507Z,94988.81
2022-10-08T08:02:25.423Z,94991.81
2022-10-08T08:04:53.139Z,95014.09
2022-10-08T08:07:19.764Z,95017.84
2022-10-08T08:09:46.588Z,95011.09
2022-10-08T08:12:13.605Z,94984.44
2022-10-08T08:14:40.238Z,94969.94
2022-10-08T08:17:07.001Z,94968.28
2022-10-08T08:19:33.675Z,95005.38
2022-10-08T08:22:00.340Z,95021.47
2022-10-08T08:24:27.004Z,95025.06
2022-10-08T08:26:57.568Z,95024.41
2022-10-08T08:29:24.463Z,95008.56
2022-10-08T08:31:51.230Z,95009.09
2022-10-08T08:34:20.969Z,95032.03
2022-10-08T08:36:49.401Z,95029.97
2022-10-08T08:39:20.946Z,95033.19
2022-10-08T08:42:10.230Z,95033.31
2022-10-08T08:44:39.943Z,95025.56
2022-10-08T08:47:30.882Z,95029.75
2022-10-08T08:50:01.197Z,95027.47
2022-10-08T08:52:33.950Z,95024.31
2022-10-08T08:55:01.175Z,95013.19
2022-10-08T08:57:33.989Z,95040.28
2022-10-08T09:00:05.707Z,95040.63
2022-10-08T09:02:39.126Z,95036.53
2022-10-08T09:05:09.276Z,95060.38
2022-10-08T09:07:49.609Z,95044.50
2022-10-08T09:10:20.460Z,95053.97
2022-10-08T09:12:48.069Z,95051.97
2022-10-08T09:15:21.553Z,95044.13
2022-10-08T09:17:51.905Z,95032.91
2022-10-08T09:20:20.630Z,95052.53
2022-10-08T09:22:49.696Z,95034.25
2022-10-08T09:25:20.550Z,95017.53
2022-10-08T09:27:51.147Z,95053.81
2022-10-08T09:30:29.478Z,95053.06
2022-10-08T09:33:02.693Z,95051.22
2022-10-08T09:35:31.886Z,95045.03
2022-10-08T09:38:02.172Z,95051.88
2022-10-08T09:40:32.213Z,95042.31
2022-10-08T09:43:28.246Z,95051.25
2022-10-08T09:45:54.894Z,95051.34
2022-10-08T09:48:25.503Z,95054.19
2022-10-08T09:50:56.357Z,95054.88
2022-10-08T09:53:24.317Z,95004.63
2022-10-08T09:56:01.173Z,95058.69
2022-10-08T09:58:31.652Z,95043.31
2022-10-08T10:01:14.116Z,95045.47
2022-10-08T10:03:47.773Z,95049.25
2022-10-08T10:06:20.384Z,95035.38
2022-10-08T10:08:57.369Z,95026.53
2022-10-08T10:11:31.907Z,95030.66
2022-10-08T10:14:04.139Z,95044.31
2022-10-08T10:16:39.651Z,95008.91
2022-10-08T10:19:15.680Z,95025.34
2022-10-08T10:21:50.213Z,95033.69
2022-10-08T10:24:19.674Z,95054.16
2022-10-08T10:26:47.369Z,95038.28
2022-10-08T10:29:20.865Z,95040.25
2022-10-08T10:31:50.954Z,95041.13
2022-10-08T10:34:17.591Z,95045.25
2022-10-08T10:36:49.874Z,95053.63
2022-10-08T10:39:38.837Z,95040.78
2022-10-08T10:42:18.588Z,95040.69
2022-10-08T10:44:54.274Z,95051.84
2022-10-08T10:47:30.958Z,95036.13
2022-10-08T10:50:00.613Z,95044.63
2022-10-08T10:52:48.339Z,95052.66
2022-10-08T10:55:32.937Z,95036.09
2022-10-08T10:58:12.172Z,95052.09
2022-10-08T11:00:48.062Z,95041.91
2022-10-08T11:03:20.510Z,95034.97
2022-10-08T11:05:51.174Z,95029.22
2022-10-08T11:08:27.292Z,95027.59
2022-10-08T11:11:06.618Z,95021.25
2022-10-08T11:13:48.013Z,95032.31
2022-10-08T11:16:23.888Z,95034.19
2022-10-08T11:18:53.614Z,95027.22
2022-10-08T11:21:50.845Z,95030.09
2022-10-08T11:24:36.363Z,95029.69
2022-10-08T11:27:28.614Z,95028.25
2022-10-08T11:30:33.779Z,95032.78
2022-10-08T11:33:00.650Z,95030.94
2022-10-08T11:35:36.261Z,95023.19
2022-10-08T11:38:13.928Z,95017.44
2022-10-08T11:40:40.498Z,95029.13
2022-10-08T11:43:17.097Z,95037.50
2022-10-08T11:45:46.211Z,95019.06
2022-10-08T11:48:34.326Z,95026.44
2022-10-08T11:51:18.992Z,95032.56
2022-10-08T11:54:00.818Z,95030.09
2022-10-08T11:56:27.614Z,95019.19
2022-10-08T11:58:56.887Z,95023.50
2022-10-08T12:01:23.843Z,95024.72
2022-10-08T12:04:01.134Z,95026.31
2022-10-08T12:06:30.168Z,95026.78
2022-10-08T12:09:05.229Z,95016.13
2022-10-08T12:11:31.837Z,95025.97
2022-10-08T12:14:14.510Z,95032.31
2022-10-08T12:16:59.084Z,95027.19
2022-10-08T12:19:34.595Z,95028.38
2022-10-08T12:22:10.900Z,95005.91
2022-10-08T12:24:37.504Z,95025.75
2022-10-08T12:27:25.511Z,95020.84
2022-10-08T12:29:55.080Z,95023.31
2022-10-08T12:32:43.859Z,95020.41
2022-10-08T12:35:24.107Z,95024.13
2022-10-08T12:38:09.430Z,95021.31
2022-10-08T12:40:53.643Z,95023.97
2022-10-08T12:43:36.407Z,95026.44
2022-10-08T12:46:11.150Z,95034.84
2022-10-08T12:49:02.151Z,95012.91
2022-10-08T12:51:44.116Z,95028.88
2022-10-08T12:54:25.085Z,95029.44
2022-10-08T12:56:52.798Z,95018.53
2022-10-08T12:59:24.764Z,95014.84
2022-10-08T13:01:53.774Z,95015.25
2022-10-08T13:04:23.868Z,95014.16
2022-10-08T13:06:52.275Z,95026.03
2022-10-08T13:09:31.092Z,95011.84
2022-10-08T13:12:03.586Z,95029.81
2022-10-08T13:14:36.177Z,95035.25
2022-10-08T13:17:03.267Z,95027.44
2022-10-08T13:19:38.415Z,95013.16
2022-10-08T13:22:09.034Z,95040.84
2022-10-08T13:24:40.917Z,95036.16
2022-10-08T13:27:26.097Z,95045.63
2022-10-08T13:29:54.041Z,95047.66
2022-10-08T13:32:25.977Z,95034.34
2022-10-08T13:34:56.147Z,95045.59
2022-10-08T13:37:22.701Z,95048.03
2022-10-08T13:40:11.376Z,95039.03
2022-10-08T13:42:52.684Z,95039.66
2022-10-08T13:45:20.157Z,95046.34
2022-10-08T13:47:47.128Z,95031.34
2022-10-08T13:50:14.532Z,95049.09
2022-10-08T13:52:44.429Z,95037.28
2022-10-08T13:55:41.169Z,95040.19
2022-10-08T13:58:07.978Z,95030.31
2022-10-08T14:00:36.820Z,95055.53
2022-10-08T14:03:03.685Z,95044.59
2022-10-08T14:05:31.063Z,95053.78
2022-10-08T14:08:01.304Z,95052.53
2022-10-08T14:10:28.212Z,95040.09
2022-10-08T14:12:54.893Z,95041.09
2022-10-08T14:15:21.808Z,95043.91
2022-10-08T14:17:50.676Z,95043.91
2022-10-08T14:20:17.447Z,95047.34
2022-10-08T14:22:44.235Z,95052.88
2022-10-08T14:25:22.931Z,95048.28
2022-10-08T14:27:50.102Z,95054.97
2022-10-08T14:30:17.534Z,95050.72
2022-10-08T14:32:44.777Z,95052.03
2022-10-08T14:35:12.332Z,95053.41
2022-10-08T14:37:39.255Z,95062.44
2022-10-08T14:40:07.457Z,95062.44
2022-10-08T14:42:35.219Z,95050.78
2022-10-08T14:45:01.944Z,95048.16
2022-10-08T14:47:28.554Z,95057.38
2022-10-08T14:49:55.152Z,95044.75
2022-10-08T14:52:21.858Z,95071.41
2022-10-08T14:54:48.521Z,95062.19
2022-10-08T14:57:15.174Z,95058.63
2022-10-08T14:59:45.093Z,95066.47
2022-10-08T15:02:12.143Z,95056.97
2022-10-08T15:04:39.030Z,95061.91
2022-10-08T15:07:08.058Z,95053.97
2022-10-08T15:09:37.198Z,95056.88
2022-10-08T15:12:03.905Z,95061.19
2022-10-08T15:14:34.361Z,95074.41
2022-10-08T15:17:03.912Z,95065.03
2022-10-08T15:19:30.521Z,95072.56
2022-10-08T15:21:57.124Z,95073.44
2022-10-08T15:24:23.820Z,95070.19
2022-10-08T15:26:50.446Z,95075.97
2022-10-08T15:29:17.209Z,95087.06
2022-10-08T15:31:43.888Z,95089.53
2022-10-08T15:34:17.966Z,95072.47
2022-10-08T15:36:45.237Z,95082.50
2022-10-08T15:39:16.978Z,95083.28
2022-10-08T15:41:49.864Z,95091.25
2022-10-08T15:44:27.011Z,95069.59
2022-10-08T15:47:02.675Z,95097.50
2022-10-08T15:49:40.414Z,95106.69
2022-10-08T15:52:09.580Z,95102.94
2022-10-08T15:54:40.028Z,95099.13
2022-10-08T15:57:07.754Z,95098.69
2022-10-08T15:59:34.438Z,95096.38
2022-10-08T16:02:01.295Z,95109.41
2022-10-08T16:04:28.125Z,95113.09
2022-10-08T16:06:54.777Z,95115.13
2022-10-08T16:09:22.997Z,95115.19
2022-10-08T16:11:50.525Z,95125.03
2022-10-08T16:14:19.778Z,95120.81
2022-10-08T16:16:46.706Z,95126.94
2022-10-08T16:19:16.484Z,95109.28
2022-10-08T16:21:44.778Z,95130.50
2022-10-08T16:24:11.846Z,95141.38
2022-10-08T16:26:39.934Z,95146.56
2022-10-08T16:29:08.894Z,95142.44
2022-10-08T16:31:37.398Z,95137.38
2022-10-08T16:34:12.849Z,95141.97
2022-10-08T16:36:39.912Z,95152.41
2022-10-08T16:39:08.013Z,95153.97
2022-10-08T16:41:35.507Z,95144.56
2022-10-08T16:44:13.777Z,95157.56
2022-10-08T16:46:42.770Z,95170.63
2022-10-08T16:49:29.129Z,95163.19
2022-10-08T16:52:01.379Z,95173.59
2022-10-08T16:54:28.535Z,95174.53
2022-10-08T16:56:55.210Z,95145.88
2022-10-08T16:59:24.559Z,95181.84
2022-10-08T17:01:53.878Z,95178.63
2022-10-08T17:04:21.961Z,95178.22
2022-10-08T17:06:48.609Z,95179.84
2022-10-08T17:09:17.652Z,95183.56
2022-10-08T17:11:44.380Z,95184.28
2022-10-08T17:14:11.843Z,95196.72
2022-10-08T17:16:39.516Z,95200.50
2022-10-08T17:19:06.524Z,95205.50
2022-10-08T17:21:35.019Z,95210.16
2022-10-08T17:24:02.865Z,95215.81
2022-10-08T17:26:30.957Z,95219.13
2022-10-08T17:28:58.105Z,95215.53
2022-10-08T17:31:29.049Z,95216.22
2022-10-08T17:33:55.754Z,95221.00
2022-10-08T17:36:25.445Z,95238.13
2022-10-08T17:38:53.962Z,95215.53
2022-10-08T17:41:22.477Z,95229.03
2022-10-08T17:43:50.345Z,95241.25
2022-10-08T17:46:22.480Z,95246.69
2022-10-08T17:48:49.483Z,95247.13
2022-10-08T17:51:18.297Z,95237.84
2022-10-08T17:53:45.416Z,95253.66
2022-10-08T17:56:13.381Z,95238.47
2022-10-08T17:58:40.353Z,95250.00
2022-10-08T18:01:18.495Z,95256.06
2022-10-08T18:03:52.803Z,95256.72
2022-10-08T18:06:20.029Z,95257.47
2022-10-08T18:08:46.926Z,95254.75
2022-10-08T18:11:15.294Z,95271.06
2022-10-08T18:13:42.117Z,95264.25
2022-10-08T18:16:16.900Z,95266.81
2022-10-08T18:18:44.436Z,95262.59
2022-10-08T18:21:16.131Z,95264.72
2022-10-08T18:23:43.331Z,95260.41
2022-10-08T18:26:23.778Z,95272.41
2022-10-08T18:28:52.340Z,95276.81
2022-10-08T18:31:20.115Z,95281.97
2022-10-08T18:33:49.858Z,95281.63
2022-10-08T18:36:20.026Z,95294.63
2022-10-08T18:38:48.667Z,95296.06
2022-10-08T18:41:20.675Z,95292.38
2022-10-08T18:43:49.435Z,95290.97
2022-10-08T18:46:18.192Z,95300.00
2022-10-08T18:48:44.928Z,95291.06
2022-10-08T18:51:14.437Z,95308.19
2022-10-08T18:53:42.589Z,95308.94
2022-10-08T18:56:14.978Z,95305.63
2022-10-08T18:58:41.642Z,95298.34
2022-10-08T19:01:16.371Z,95306.53
2022-10-08T19:03:50.272Z,95311.78
2022-10-08T19:06:18.840Z,95322.91
2022-10-08T19:08:45.775Z,95317.56
2022-10-08T19:11:17.790Z,95322.03
2022-10-08T19:13:44.777Z,95313.59
2022-10-08T19:16:15.529Z,95324.94
2022-10-08T19:18:56.761Z,95323.06
2022-10-08T19:21:25.190Z,95330.38
2022-10-08T19:23:52.871Z,95333.88
2022-10-08T19:26:19.682Z,95326.13
2022-10-08T19:28:51.193Z,95332.19
2022-10-08T19:31:23.104Z,95338.84
2022-10-08T19:33:54.888Z,95329.34
2022-10-08T19:36:22.813Z,95345.47
2022-10-08T19:39:00.517Z,95335.28
2022-10-08T19:41:28.416Z,95341.38
2022-10-08T19:43:56.320Z,95355.31
2022-10-08T19:46:23.689Z,95357.41
2022-10-08T19:48:51.841Z,95357.69
2022-10-08T19:51:19.427Z,95367.78
2022-10-08T19:53:46.172Z,95357.72
2022-10-08T19:56:13.506Z,95365.34
2022-10-08T19:58:44.999Z,95366.03
2022-10-08T20:01:19.227Z,95369.34
2022-10-08T20:03:46.050Z,95377.59
2022-10-08T20:06:17.473Z,95364.78
2022-10-08T20:08:47.161Z,95372.09
2022-10-08T20:11:16.477Z,95383.72
2022-10-08T20:13:44.644Z,95377.91
2022-10-08T20:16:19.444Z,95371.44
2022-10-08T20:18:56.720Z,95380.69
2022-10-08T20:21:25.548Z,95377.78
2022-10-08T20:23:52.187Z,95371.00
2022-10-08T20:26:23.771Z,95365.47
2022-10-08T20:28:52.643Z,95384.22
2022-10-08T20:31:25.196Z,95389.34
2022-10-08T20:34:00.084Z,95383.41
2022-10-08T20:36:27.254Z,95385.31
2022-10-08T20:38:54.107Z,95384.06
2022-10-08T20:41:23.569Z,95404.13
2022-10-08T20:43:56.109Z,95387.00
2022-10-08T20:46:23.019Z,95396.94
2022-10-08T20:48:49.709Z,95397.47
2022-10-08T20:51:19.075Z,95399.94
2022-10-08T20:53:47.168Z,95386.53
2022-10-08T20:56:14.010Z,95382.78
2022-10-08T20:58:40.856Z,95384.13
2022-10-08T21:01:10.144Z,95396.56
2022-10-08T21:03:39.294Z,95391.81
2022-10-08T21:06:07.493Z,95400.38
2022-10-08T21:08:38.121Z,95399.84
2022-10-08T21:11:06.637Z,95390.03
2022-10-08T21:13:34.173Z,95409.78
2022-10-08T21:16:07.008Z,95413.94
2022-10-08T21:18:34.913Z,95389.91
2022-10-08T21:21:06.700Z,95395.97
2022-10-08T21:23:33.798Z,95398.53
2022-10-08T21:26:12.316Z,95404.13
2022-10-08T21:28:39.450Z,95396.00
2022-10-08T21:31:07.625Z,95379.00
2022-10-08T21:33:38.728Z,95390.81
2022-10-08T21:36:07.670Z,95391.59
2022-10-08T21:38:34.311Z,95376.94
2022-10-08T21:41:03.481Z,95388.50
2022-10-08T21:43:31.077Z,95390.94
2022-10-08T21:45:59.305Z,95390.94
2022-10-08T21:48:27.177Z,95376.81
2022-10-08T21:51:01.853Z,95399.72
2022-10-08T21:53:29.919Z,95393.78
2022-10-08T21:55:58.658Z,95400.41
2022-10-08T21:58:26.365Z,95399.53
2022-10-08T22:00:53.577Z,95370.53
2022-10-08T22:03:21.237Z,95380.97
2022-10-08T22:05:56.858Z,95397.75
2022-10-08T22:08:24.941Z,95400.16
2022-10-08T22:10:52.126Z,95398.19
2022-10-08T22:13:19.061Z,95391.31
2022-10-08T22:15:56.266Z,95394.84
2022-10-08T22:18:24.326Z,95392.63
2022-10-08T22:20:51.241Z,95371.56
2022-10-08T22:23:18.331Z,95386.88
2022-10-08T22:26:02.824Z,95397.09
2022-10-08T22:28:30.034Z,95384.75
2022-10-08T22:31:02.086Z,95384.75
2022-10-08T22:33:29.544Z,95376.72
2022-10-08T22:36:13.837Z,95386.56
2022-10-08T22:38:41.893Z,95374.81
2022-10-08T22:41:14.305Z,95380.69
2022-10-08T22:43:41.547Z,95373.34
2022-10-08T22:46:17.921Z,95381.16
2022-10-08T22:48:45.189Z,95377.00
2022-10-08T22:51:17.448Z,95357.22
2022-10-08T22:53:44.505Z,95374.19
2022-10-08T22:56:13.745Z,95356.91
2022-10-08T22:58:43.278Z,95362.09
2022-10-08T23:01:12.604Z,95371.69
2022-10-08T23:03:39.799Z,95370.66
2022-10-08T23:06:12.481Z,95371.28
2022-10-08T23:08:39.333Z,95372.72
2022-10-08T23:11:06.300Z,95365.16
2022-10-08T23:13:33.216Z,95362.94
2022-10-08T23:16:07.339Z,95349.69
2022-10-08T23:18:36.634Z,95366.06
2022-10-08T23:21:07.871Z,95364.44
2022-10-08T23:23:35.812Z,95358.63
2022-10-08T23:26:04.236Z,95373.00
2022-10-08T23:28:32.181Z,95370.59
2022-10-08T23:31:10.186Z,95355.13
2022-10-08T23:33:38.350Z,95349.59
2022-10-08T23:36:10.176Z,95356.22
2022-10-08T23:38:37.122Z,95362.75
2022-10-08T23:41:05.519Z,95351.59
2022-10-08T23:43:43.601Z,95357.00
2022-10-08T23:46:12.835Z,95341.22
2022-10-08T23:48:40.130Z,95347.31
2022-10-08T23:51:08.613Z,95348.38
2022-10-08T23:53:35.440Z,95343.28
2022-10-08T23:56:02.411Z,95346.03
2022-10-08T23:58:29.367Z,95340.16
